Terminal Aerodrome Forecast
Issued by NWS Sterling, VA

Current Version | Previous Version | Graphics & Text | Print | Product List | Glossary On
Versions: 1 2 3 4 5 6 7 8 9 10 11 12 13 14 15 16 17 18 19 20 21 22 23 24 25 26
000
FTUS41 KLWX 310800 AAA
TAFIAD
TAF AMD
KIAD 310824Z 3108/0112 17005KT P6SM FEW250
     FM311100 18006KT 5SM BR SCT030 BKN060
     FM311200 20007KT P6SM SCT040 BKN080
     FM311700 20010KT P6SM SCT050 BKN110
     FM312100 23005KT P6SM -SHRA SCT050 OVC090
     FM010100 VRB03KT P6SM SCT040 OVC100=

USA.gov is the U.S. government's official web portal to all federal, state and local government web resources and services.